Time;durP1;ratioP1;P1;durP2;ratioP2;P2;SDS_P1;SDS_P2;PMS_P1;PMS_P2;Temp;Humidity;BMP_temperature;BMP_pressure;BME280_temperature;BME280_humidity;BME280_pressure;Samples;Min_cycle;Max_cycle;Signal;HPM_P1;HPM_P2
2023/10/21 00:01:49;;;;;;;;;;;;;;;;;;4987496;28;89556;-57
2023/10/21 00:04:14;;;;;;;;;;;;;;;;;;4987898;28;89522;-58
2023/10/21 00:06:40;;;;;;;;;;;;;;;;;;4988538;28;89765;-58
2023/10/21 00:09:05;;;;;;;;;;;;;;;;;;4987491;28;89546;-57
2023/10/21 00:11:30;;;;;;;;;;;;;;;;;;4990716;28;89327;-56
2023/10/21 00:13:57;;;;;;;;;;;;;;;;;;4986224;28;90333;-57
2023/10/21 00:16:22;;;;;;;;;;;;;;;;;;4987502;28;90830;-57
2023/10/21 00:18:47;;;;;;;;;;;;;;;;;;4987436;28;89432;-57
2023/10/21 00:21:12;;;;;;;;;;;;;;;;;;4972826;28;89265;-57
2023/10/21 00:23:38;;;;;;;;;;;;;;;;;;4987116;28;91250;-57
2023/10/21 00:26:03;;;;;;;;;;;;;;;;;;4986931;28;89432;-57
2023/10/21 00:28:28;;;;;;;;;;;;;;;;;;4987193;28;90182;-58
2023/10/21 00:30:54;;;;;;;;;;;;;;;;;;4969663;28;92669;-57
2023/10/21 00:33:19;;;;;;;;;;;;;;;;;;4990164;28;89890;-57
2023/10/21 00:35:45;;;;;;;;;;;;;;;;;;4987725;28;89940;-57
2023/10/21 00:38:10;;;;;;;;;;;;;;;;;;4987739;28;90137;-57
2023/10/21 00:40:35;;;;;;;;;;;;;;;;;;4987293;28;89096;-58
2023/10/21 00:43:01;;;;;;;;;;;;;;;;;;4987459;28;89017;-57
2023/10/21 00:45:26;;;;;;;;;;;;;;;;;;4987242;28;89258;-58
2023/10/21 00:47:51;;;;;;;;;;;;;;;;;;4987279;28;89374;-58
2023/10/21 00:50:16;;;;;;;;;;;;;;;;;;4989827;28;89692;-57
2023/10/21 00:52:46;;;;;;;;;;;;;;;;;;4987642;28;89200;-57
2023/10/21 00:55:12;;;;;;;;;;;;;;;;;;4990481;28;89385;-58
2023/10/21 00:57:37;;;;;;;;;;;;;;;;;;4987224;28;89268;-56
2023/10/21 01:00:10;;;;;;;;;;;;;;;;;;4986296;28;89668;-57
2023/10/21 01:02:36;;;;;;;;;;;;;;;;;;4968871;28;93358;-57
2023/10/21 01:05:01;;;;;;;;;;;;;;;;;;4986558;28;89169;-57
2023/10/21 01:07:27;;;;;;;;;;;;;;;;;;4981769;28;89342;-57
2023/10/21 01:09:53;;;;;;;;;;;;;;;;;;4985166;28;89731;-58
2023/10/21 01:12:18;;;;;;;;;;;;;;;;;;4986630;28;89985;-57
2023/10/21 01:14:44;;;;;;;;;;;;;;;;;;4986354;28;89704;-58
2023/10/21 01:17:09;;;;;;;;;;;;;;;;;;4989336;28;89450;-57
2023/10/21 01:19:34;;;;;;;;;;;;;;;;;;4986963;28;89039;-58
2023/10/21 01:21:59;;;;;;;;;;;;;;;;;;4985689;28;89846;-57
2023/10/21 01:24:25;;;;;;;;;;;;;;;;;;4986394;28;89771;-57
2023/10/21 01:26:50;;;;;;;;;;;;;;;;;;4986960;28;89909;-57
2023/10/21 01:29:15;;;;;;;;;;;;;;;;;;4986752;28;91068;-57
2023/10/21 01:31:40;;;;;;;;;;;;;;;;;;4985669;28;90582;-57
2023/10/21 01:34:07;;;;;;;;;;;;;;;;;;4986425;28;89387;-56
2023/10/21 01:36:32;;;;;;;;;;;;;;;;;;4989483;28;90716;-57
2023/10/21 01:38:57;;;;;;;;;;;;;;;;;;4985637;28;89653;-58
2023/10/21 01:41:22;;;;;;;;;;;;;;;;;;4985719;28;90586;-57
2023/10/21 01:43:48;;;;;;;;;;;;;;;;;;4985447;28;90616;-57
2023/10/21 01:46:13;;;;;;;;;;;;;;;;;;4986471;28;89125;-57
2023/10/21 01:48:38;;;;;;;;;;;;;;;;;;4986179;28;90725;-57
2023/10/21 01:51:04;;;;;;;;;;;;;;;;;;4986320;28;89731;-57
2023/10/21 01:53:31;;;;;;;;;;;;;;;;;;4986426;28;89269;-58
2023/10/21 01:56:03;;;;;;;;;;;;;;;;;;4986435;28;91748;-57
2023/10/21 01:58:28;;;;;;;;;;;;;;;;;;4981456;28;90325;-58
2023/10/21 02:00:54;;;;;;;;;;;;;;;;;;4985981;28;89876;-57
2023/10/21 02:03:19;;;;;;;;;;;;;;;;;;4985593;28;89207;-57
2023/10/21 02:05:44;;;;;;;;;;;;;;;;;;4986922;28;88981;-57
2023/10/21 02:08:09;;;;;;;;;;;;;;;;;;4985490;28;89360;-57
2023/10/21 02:10:38;;;;;;;;;;;;;;;;;;4972963;28;89232;-58
2023/10/21 02:13:03;;;;;;;;;;;;;;;;;;4985679;28;90177;-57
2023/10/21 02:15:29;;;;;;;;;;;;;;;;;;4985760;28;90599;-57
2023/10/21 02:17:54;;;;;;;;;;;;;;;;;;4985692;28;89639;-57
2023/10/21 02:20:19;;;;;;;;;;;;;;;;;;4988382;28;90117;-56
2023/10/21 02:22:44;;;;;;;;;;;;;;;;;;4968314;28;91523;-56
2023/10/21 02:25:13;;;;;;;;;;;;;;;;;;4985022;28;89424;-58
2023/10/21 02:27:40;;;;;;;;;;;;;;;;;;4983694;28;90880;-57
2023/10/21 02:30:06;;;;;;;;;;;;;;;;;;4985063;28;90044;-56
2023/10/21 02:32:32;;;;;;;;;;;;;;;;;;4985410;28;89956;-57
2023/10/21 02:34:57;;;;;;;;;;;;;;;;;;4985299;28;90185;-57
2023/10/21 02:37:22;;;;;;;;;;;;;;;;;;4985580;28;90251;-57
2023/10/21 02:39:48;;;;;;;;;;;;;;;;;;4984160;28;89532;-58
2023/10/21 02:42:13;;;;;;;;;;;;;;;;;;4988406;28;89469;-57
2023/10/21 02:44:38;;;;;;;;;;;;;;;;;;4985120;28;92489;-57
2023/10/21 02:47:03;;;;;;;;;;;;;;;;;;4985249;28;89681;-57
2023/10/21 02:49:28;;;;;;;;;;;;;;;;;;4985148;28;89758;-57
2023/10/21 02:51:55;;;;;;;;;;;;;;;;;;4985115;28;89894;-56
2023/10/21 02:54:20;;;;;;;;;;;;;;;;;;4968745;28;92253;-58
2023/10/21 02:56:45;;;;;;;;;;;;;;;;;;4985334;28;90466;-57
2023/10/21 02:59:10;;;;;;;;;;;;;;;;;;4984885;28;89464;-58
2023/10/21 03:01:36;;;;;;;;;;;;;;;;;;4984686;28;90104;-57
2023/10/21 03:04:02;;;;;;;;;;;;;;;;;;4988156;28;90249;-56
2023/10/21 03:06:27;;;;;;;;;;;;;;;;;;4984718;28;89506;-57
2023/10/21 03:08:52;;;;;;;;;;;;;;;;;;4985063;28;89550;-58
2023/10/21 03:11:17;;;;;;;;;;;;;;;;;;4985060;28;89649;-57
2023/10/21 03:13:43;;;;;;;;;;;;;;;;;;4985651;28;90778;-57
2023/10/21 03:16:09;;;;;;;;;;;;;;;;;;4984332;28;89593;-57
2023/10/21 03:18:35;;;;;;;;;;;;;;;;;;4985150;28;89663;-57
2023/10/21 03:21:00;;;;;;;;;;;;;;;;;;4985033;28;91114;-56
2023/10/21 03:23:25;;;;;;;;;;;;;;;;;;4985487;28;89741;-56
2023/10/21 03:26:00;;;;;;;;;;;;;;;;;;4987854;28;89128;-57
2023/10/21 03:28:26;;;;;;;;;;;;;;;;;;4983278;28;90323;-57
2023/10/21 03:30:56;;;;;;;;;;;;;;;;;;4986559;28;89515;-57
2023/10/21 03:33:21;;;;;;;;;;;;;;;;;;4988537;28;90630;-57
2023/10/21 03:35:57;;;;;;;;;;;;;;;;;;4988283;28;90420;-58
2023/10/21 03:38:22;;;;;;;;;;;;;;;;;;4989365;28;89055;-57
2023/10/21 03:40:54;;;;;;;;;;;;;;;;;;4987885;28;90104;-57
2023/10/21 03:43:19;;;;;;;;;;;;;;;;;;4988087;28;89646;-57
2023/10/21 03:45:44;;;;;;;;;;;;;;;;;;4990904;28;89438;-57
2023/10/21 03:48:10;;;;;;;;;;;;;;;;;;4987710;28;89317;-56
2023/10/21 03:50:35;;;;;;;;;;;;;;;;;;4988146;28;89959;-57
2023/10/21 03:53:00;;;;;;;;;;;;;;;;;;4987504;28;89691;-56
2023/10/21 03:55:26;;;;;;;;;;;;;;;;;;4971110;28;89500;-57
2023/10/21 03:57:51;;;;;;;;;;;;;;;;;;4988618;28;89371;-57
2023/10/21 04:00:17;;;;;;;;;;;;;;;;;;4987740;28;91053;-57
2023/10/21 04:02:42;;;;;;;;;;;;;;;;;;4988227;28;90126;-57
2023/10/21 04:05:08;;;;;;;;;;;;;;;;;;4987574;28;89451;-56
2023/10/21 04:07:34;;;;;;;;;;;;;;;;;;4989761;28;90693;-58
2023/10/21 04:09:59;;;;;;;;;;;;;;;;;;4987435;28;89860;-57
2023/10/21 04:12:24;;;;;;;;;;;;;;;;;;4988069;28;89871;-57
2023/10/21 04:14:49;;;;;;;;;;;;;;;;;;4988472;28;89766;-56
2023/10/21 04:17:15;;;;;;;;;;;;;;;;;;4987710;28;90001;-58
2023/10/21 04:19:40;;;;;;;;;;;;;;;;;;4988240;28;90551;-57
2023/10/21 04:22:05;;;;;;;;;;;;;;;;;;4987804;28;90147;-57
2023/10/21 04:24:30;;;;;;;;;;;;;;;;;;4987732;28;89524;-58
2023/10/21 04:26:55;;;;;;;;;;;;;;;;;;4986968;28;89922;-58
2023/10/21 04:29:20;;;;;;;;;;;;;;;;;;4990090;28;89378;-57
2023/10/21 04:31:46;;;;;;;;;;;;;;;;;;4986579;28;89605;-57
2023/10/21 04:34:12;;;;;;;;;;;;;;;;;;4972566;28;92281;-57
2023/10/21 04:36:37;;;;;;;;;;;;;;;;;;4987279;28;89483;-57
2023/10/21 04:39:03;;;;;;;;;;;;;;;;;;4986914;28;89578;-57
2023/10/21 04:41:29;;;;;;;;;;;;;;;;;;4988019;28;90419;-57
2023/10/21 04:43:54;;;;;;;;;;;;;;;;;;4986392;28;89232;-57
2023/10/21 04:46:19;;;;;;;;;;;;;;;;;;4987261;28;90981;-56
2023/10/21 04:48:44;;;;;;;;;;;;;;;;;;4987387;28;89140;-57
2023/10/21 04:51:10;;;;;;;;;;;;;;;;;;4991222;28;90114;-56
2023/10/21 04:53:35;;;;;;;;;;;;;;;;;;4985652;28;89833;-57
2023/10/21 04:56:02;;;;;;;;;;;;;;;;;;4986090;28;90134;-57
2023/10/21 04:58:27;;;;;;;;;;;;;;;;;;4986728;28;91037;-58
2023/10/21 05:00:52;;;;;;;;;;;;;;;;;;4986711;28;89732;-58
2023/10/21 05:03:18;;;;;;;;;;;;;;;;;;4986576;28;89674;-58
2023/10/21 05:05:43;;;;;;;;;;;;;;;;;;4987256;28;90725;-58
2023/10/21 05:08:08;;;;;;;;;;;;;;;;;;4986375;28;89806;-58
2023/10/21 05:10:34;;;;;;;;;;;;;;;;;;4986996;28;89838;-58
2023/10/21 05:12:59;;;;;;;;;;;;;;;;;;4989814;28;89658;-58
2023/10/21 05:15:24;;;;;;;;;;;;;;;;;;4986591;28;89753;-58
2023/10/21 05:17:49;;;;;;;;;;;;;;;;;;4985699;28;89400;-57
2023/10/21 05:20:15;;;;;;;;;;;;;;;;;;4986649;28;89240;-57
2023/10/21 05:22:40;;;;;;;;;;;;;;;;;;4986347;28;90924;-58
2023/10/21 05:25:06;;;;;;;;;;;;;;;;;;4985656;28;90271;-56
2023/10/21 05:27:32;;;;;;;;;;;;;;;;;;4984504;28;89100;-57
2023/10/21 05:29:58;;;;;;;;;;;;;;;;;;4985523;28;89064;-58
2023/10/21 05:32:23;;;;;;;;;;;;;;;;;;4985989;28;90535;-59
2023/10/21 05:34:48;;;;;;;;;;;;;;;;;;4981658;28;90002;-58
2023/10/21 05:37:13;;;;;;;;;;;;;;;;;;4986271;28;89278;-58
2023/10/21 05:39:39;;;;;;;;;;;;;;;;;;4985664;28;90180;-59
2023/10/21 05:42:04;;;;;;;;;;;;;;;;;;4985399;28;90226;-58
2023/10/21 05:44:29;;;;;;;;;;;;;;;;;;4985542;28;90102;-60
2023/10/21 05:46:54;;;;;;;;;;;;;;;;;;4983091;28;90469;-60
2023/10/21 05:49:19;;;;;;;;;;;;;;;;;;4987453;28;89714;-60
2023/10/21 05:51:45;;;;;;;;;;;;;;;;;;4984309;28;90147;-57
2023/10/21 05:54:10;;;;;;;;;;;;;;;;;;4988180;28;89792;-58
2023/10/21 05:56:35;;;;;;;;;;;;;;;;;;4986286;28;89769;-58
2023/10/21 05:59:00;;;;;;;;;;;;;;;;;;4986460;28;90106;-58
2023/10/21 06:01:26;;;;;;;;;;;;;;;;;;4986207;28;90530;-58
2023/10/21 06:03:52;;;;;;;;;;;;;;;;;;4983239;28;91090;-58
2023/10/21 06:06:17;;;;;;;;;;;;;;;;;;4980104;28;89539;-58
2023/10/21 06:08:42;;;;;;;;;;;;;;;;;;4985478;28;89261;-57
2023/10/21 06:11:08;;;;;;;;;;;;;;;;;;4984927;28;90179;-57
2023/10/21 06:13:33;;;;;;;;;;;;;;;;;;4985521;28;90204;-58
2023/10/21 06:15:58;;;;;;;;;;;;;;;;;;4987770;28;89737;-57
2023/10/21 06:18:23;;;;;;;;;;;;;;;;;;4986071;28;89867;-57
2023/10/21 06:20:49;;;;;;;;;;;;;;;;;;4985022;28;90444;-58
2023/10/21 06:23:14;;;;;;;;;;;;;;;;;;4985673;28;89772;-58
2023/10/21 06:25:39;;;;;;;;;;;;;;;;;;4984942;28;89582;-57
2023/10/21 06:28:05;;;;;;;;;;;;;;;;;;4983685;28;89951;-57
2023/10/21 06:30:30;;;;;;;;;;;;;;;;;;4984331;28;91524;-57
2023/10/21 06:32:57;;;;;;;;;;;;;;;;;;4984327;28;89262;-59
2023/10/21 06:35:22;;;;;;;;;;;;;;;;;;4985323;28;90349;-58
2023/10/21 06:37:49;;;;;;;;;;;;;;;;;;4994961;28;90333;-59
2023/10/21 06:40:14;;;;;;;;;;;;;;;;;;4984416;28;89406;-58
2023/10/21 06:42:40;;;;;;;;;;;;;;;;;;4984350;28;89579;-58
2023/10/21 06:45:05;;;;;;;;;;;;;;;;;;4980782;28;90582;-62
2023/10/21 06:47:32;;;;;;;;;;;;;;;;;;4984930;28;89982;-64
2023/10/21 06:49:57;;;;;;;;;;;;;;;;;;4984614;28;90105;-68
2023/10/21 06:52:23;;;;;;;;;;;;;;;;;;4984626;28;89079;-69
2023/10/21 06:54:50;;;;;;;;;;;;;;;;;;4984754;28;89652;-65
2023/10/21 06:57:20;;;;;;;;;;;;;;;;;;4967340;28;90858;-64
2023/10/21 06:59:46;;;;;;;;;;;;;;;;;;4985746;28;90053;-64
2023/10/21 07:02:11;;;;;;;;;;;;;;;;;;4982402;28;89790;-63
2023/10/21 07:04:37;;;;;;;;;;;;;;;;;;4983674;28;89622;-63
2023/10/21 07:07:02;;;;;;;;;;;;;;;;;;4982402;28;89475;-62
2023/10/21 07:09:29;;;;;;;;;;;;;;;;;;4983350;28;90031;-63
2023/10/21 07:11:54;;;;;;;;;;;;;;;;;;4979581;28;90107;-63
2023/10/21 07:14:20;;;;;;;;;;;;;;;;;;4986909;28;89287;-62
2023/10/21 07:16:45;;;;;;;;;;;;;;;;;;4979789;28;89606;-62
2023/10/21 07:19:10;;;;;;;;;;;;;;;;;;4983022;28;89521;-62
2023/10/21 07:21:35;;;;;;;;;;;;;;;;;;4986006;28;89035;-62
2023/10/21 07:24:01;;;;;;;;;;;;;;;;;;4983407;28;90399;-63
2023/10/21 07:26:26;;;;;;;;;;;;;;;;;;4983389;28;90242;-63
2023/10/21 07:28:51;;;;;;;;;;;;;;;;;;4984936;28;89818;-64
2023/10/21 07:31:16;;;;;;;;;;;;;;;;;;4981903;28;90499;-64
2023/10/21 07:33:41;;;;;;;;;;;;;;;;;;4983932;28;89809;-64
2023/10/21 07:36:07;;;;;;;;;;;;;;;;;;4983698;28;91045;-64
2023/10/21 07:38:32;;;;;;;;;;;;;;;;;;4984709;28;89283;-63
2023/10/21 07:40:57;;;;;;;;;;;;;;;;;;4983649;28;89055;-63
2023/10/21 07:43:22;;;;;;;;;;;;;;;;;;4986288;28;89540;-64
2023/10/21 07:45:48;;;;;;;;;;;;;;;;;;4984172;28;89602;-64
2023/10/21 07:48:14;;;;;;;;;;;;;;;;;;4984466;28;90267;-63
2023/10/21 07:50:40;;;;;;;;;;;;;;;;;;4984437;28;90306;-66
2023/10/21 07:53:05;;;;;;;;;;;;;;;;;;4985064;28;89509;-68
2023/10/21 07:55:30;;;;;;;;;;;;;;;;;;4983101;28;90328;-67
2023/10/21 07:57:55;;;;;;;;;;;;;;;;;;4984603;28;89755;-68
2023/10/21 08:00:21;;;;;;;;;;;;;;;;;;4983443;28;89646;-65
2023/10/21 08:02:46;;;;;;;;;;;;;;;;;;4987714;28;89758;-66
2023/10/21 08:05:11;;;;;;;;;;;;;;;;;;4984036;28;90609;-66
2023/10/21 08:07:37;;;;;;;;;;;;;;;;;;4982746;28;90775;-66
2023/10/21 08:10:05;;;;;;;;;;;;;;;;;;4983984;28;89667;-63
2023/10/21 08:12:32;;;;;;;;;;;;;;;;;;4983497;28;89937;-67
2023/10/21 08:14:57;;;;;;;;;;;;;;;;;;4983356;28;90771;-66
2023/10/21 08:17:23;;;;;;;;;;;;;;;;;;4985658;28;89675;-66
2023/10/21 08:19:48;;;;;;;;;;;;;;;;;;4987239;28;89431;-62
2023/10/21 08:22:13;;;;;;;;;;;;;;;;;;4987204;28;89906;-64
2023/10/21 08:24:38;;;;;;;;;;;;;;;;;;4990160;28;91039;-62
2023/10/21 08:27:04;;;;;;;;;;;;;;;;;;4986731;28;89570;-62
2023/10/21 08:29:30;;;;;;;;;;;;;;;;;;4987284;28;90313;-62
2023/10/21 08:31:55;;;;;;;;;;;;;;;;;;4987729;28;89558;-62
2023/10/21 08:34:20;;;;;;;;;;;;;;;;;;4984349;28;89781;-66
2023/10/21 08:36:45;;;;;;;;;;;;;;;;;;4979146;28;89690;-66
2023/10/21 08:39:11;;;;;;;;;;;;;;;;;;4983977;28;89401;-65
2023/10/21 08:41:38;;;;;;;;;;;;;;;;;;4985373;28;90521;-65
2023/10/21 08:44:05;;;;;;;;;;;;;;;;;;4985883;28;89572;-64
2023/10/21 08:46:31;;;;;;;;;;;;;;;;;;4988834;28;89498;-65
2023/10/21 08:48:56;;;;;;;;;;;;;;;;;;4968691;28;89861;-66
2023/10/21 08:51:21;;;;;;;;;;;;;;;;;;4992439;28;90116;-64
2023/10/21 08:53:48;;;;;;;;;;;;;;;;;;4985870;28;89587;-65
2023/10/21 08:56:16;;;;;;;;;;;;;;;;;;4986458;28;89567;-64
2023/10/21 08:58:42;;;;;;;;;;;;;;;;;;4986304;28;89876;-65
2023/10/21 09:01:07;;;;;;;;;;;;;;;;;;4986558;28;89412;-63
2023/10/21 09:03:32;;;;;;;;;;;;;;;;;;4986288;28;89740;-64
2023/10/21 09:06:10;;;;;;;;;;;;;;;;;;4986281;28;89866;-63
2023/10/21 09:08:36;;;;;;;;;;;;;;;;;;4989119;28;89770;-64
2023/10/21 09:11:06;;;;;;;;;;;;;;;;;;4985376;28;89383;-63
2023/10/21 09:13:31;;;;;;;;;;;;;;;;;;4986003;28;91610;-65
2023/10/21 09:15:57;;;;;;;;;;;;;;;;;;4985861;28;89265;-64
2023/10/21 09:18:23;;;;;;;;;;;;;;;;;;4102672;28;10001060;-63
2023/10/21 09:20:49;;;;;;;;;;;;;;;;;;4986075;28;89721;-64
2023/10/21 09:23:14;;;;;;;;;;;;;;;;;;4986014;28;89465;-63
2023/10/21 09:25:39;;;;;;;;;;;;;;;;;;4985783;28;89490;-64
2023/10/21 09:28:05;;;;;;;;;;;;;;;;;;4985427;28;89285;-64
2023/10/21 09:30:30;;;;;;;;;;;;;;;;;;4989145;28;89345;-64
2023/10/21 09:33:06;;;;;;;;;;;;;;;;;;4986354;28;89422;-62
2023/10/21 09:35:32;;;;;;;;;;;;;;;;;;4980739;28;90676;-64
2023/10/21 09:38:13;;;;;;;;;;;;;;;;;;4981675;28;90402;-64
2023/10/21 09:40:39;;;;;;;;;;;;;;;;;;4977404;28;90573;-64
2023/10/21 09:43:04;;;;;;;;;;;;;;;;;;4981722;28;91789;-66
2023/10/21 09:45:31;;;;;;;;;;;;;;;;;;4985591;28;91230;-66
2023/10/21 09:47:59;;;;;;;;;;;;;;;;;;4982931;28;90559;-64
2023/10/21 09:50:24;;;;;;;;;;;;;;;;;;4981742;28;93151;-63
2023/10/21 09:52:51;;;;;;;;;;;;;;;;;;4986244;28;90419;-66
2023/10/21 09:55:17;;;;;;;;;;;;;;;;;;4985639;28;89699;-63
2023/10/21 09:57:44;;;;;;;;;;;;;;;;;;4982493;28;90319;-64
2023/10/21 10:00:10;;;;;;;;;;;;;;;;;;4986836;28;89741;-64
2023/10/21 10:02:36;;;;;;;;;;;;;;;;;;4984584;28;89698;-65
2023/10/21 10:05:06;;;;;;;;;;;;;;;;;;4983339;28;89912;-63
2023/10/21 10:07:32;;;;;;;;;;;;;;;;;;4978561;28;89342;-63
2023/10/21 10:09:58;;;;;;;;;;;;;;;;;;4966557;28;91372;-62
2023/10/21 10:12:31;;;;;;;;;;;;;;;;;;4983870;28;89473;-64
2023/10/21 10:14:56;;;;;;;;;;;;;;;;;;4984825;28;93262;-67
2023/10/21 10:17:40;;;;;;;;;;;;;;;;;;4984438;28;89985;-68
2023/10/21 10:20:18;;;;;;;;;;;;;;;;;;4981697;28;89640;-65
2023/10/21 10:22:43;;;;;;;;;;;;;;;;;;4978710;28;90888;-66
2023/10/21 10:25:11;;;;;;;;;;;;;;;;;;4984258;28;89330;-66
2023/10/21 10:27:40;;;;;;;;;;;;;;;;;;4984696;28;89293;-67
2023/10/21 10:30:19;;;;;;;;;;;;;;;;;;4983017;28;90286;-65
2023/10/21 10:32:47;;;;;;;;;;;;;;;;;;4985269;28;89256;-72
2023/10/21 10:35:27;;;;;;;;;;;;;;;;;;4986913;28;90278;-63
2023/10/21 10:37:52;;;;;;;;;;;;;;;;;;4982541;28;90044;-61
2023/10/21 10:40:18;;;;;;;;;;;;;;;;;;4982143;28;89669;-65
2023/10/21 10:42:43;;;;;;;;;;;;;;;;;;4981509;28;91207;-65
2023/10/21 10:45:08;;;;;;;;;;;;;;;;;;4980907;28;89952;-63
2023/10/21 10:47:34;;;;;;;;;;;;;;;;;;4980196;28;90092;-64
2023/10/21 10:50:00;;;;;;;;;;;;;;;;;;4986125;28;89755;-63
2023/10/21 10:52:26;;;;;;;;;;;;;;;;;;4981110;28;89882;-64
2023/10/21 10:54:53;;;;;;;;;;;;;;;;;;4979664;28;89102;-63
2023/10/21 10:57:20;;;;;;;;;;;;;;;;;;4984058;28;90777;-64
2023/10/21 10:59:46;;;;;;;;;;;;;;;;;;4977131;28;89828;-63
2023/10/21 11:02:14;;;;;;;;;;;;;;;;;;4983467;28;89494;-63
2023/10/21 11:04:40;;;;;;;;;;;;;;;;;;4983486;28;90262;-64
2023/10/21 11:07:09;;;;;;;;;;;;;;;;;;4983191;28;89146;-63
2023/10/21 11:09:34;;;;;;;;;;;;;;;;;;4983522;28;89621;-64
2023/10/21 11:11:59;;;;;;;;;;;;;;;;;;4983989;28;89952;-64
2023/10/21 11:14:26;;;;;;;;;;;;;;;;;;4975566;28;89377;-63
2023/10/21 11:16:52;;;;;;;;;;;;;;;;;;4965717;28;91757;-64
2023/10/21 11:19:17;;;;;;;;;;;;;;;;;;4986661;28;90005;-63
2023/10/21 11:21:48;;;;;;;;;;;;;;;;;;4983988;28;89979;-64
2023/10/21 11:24:13;;;;;;;;;;;;;;;;;;4980188;28;90316;-65
2023/10/21 11:26:39;;;;;;;;;;;;;;;;;;4983055;28;90503;-63
2023/10/21 11:29:08;;;;;;;;;;;;;;;;;;4981529;28;90876;-64
2023/10/21 11:31:34;;;;;;;;;;;;;;;;;;4983426;28;89330;-64
2023/10/21 11:34:11;;;;;;;;;;;;;;;;;;4983112;28;89407;-63
2023/10/21 11:36:39;;;;;;;;;;;;;;;;;;4983273;28;90016;-64
2023/10/21 11:39:13;;;;;;;;;;;;;;;;;;4982333;28;89735;-63
2023/10/21 11:41:42;;;;;;;;;;;;;;;;;;4986860;28;89480;-63
2023/10/21 11:44:08;;;;;;;;;;;;;;;;;;4981326;28;89823;-64
2023/10/21 11:46:36;;;;;;;;;;;;;;;;;;4982845;28;89596;-64
2023/10/21 11:49:01;;;;;;;;;;;;;;;;;;4983303;28;89618;-64
2023/10/21 11:51:29;;;;;;;;;;;;;;;;;;4983900;28;89585;-64
2023/10/21 11:53:54;;;;;;;;;;;;;;;;;;4986645;28;89604;-64
2023/10/21 12:36:39;;;;;;;;;;;;;;;;;;4984601;28;89642;-64
2023/10/21 12:40:29;;;;;;;;;;;;;;;;;;4986833;28;89551;-64
2023/10/21 12:41:58;;;;;;;;;;;;;;;;;;4968456;28;89793;-64
2023/10/21 12:44:26;;;;;;;;;;;;;;;;;;4983668;28;90210;-64
2023/10/21 12:47:05;;;;;;;;;;;;;;;;;;4987357;28;89693;-64
2023/10/21 12:49:31;;;;;;;;;;;;;;;;;;4989050;28;90320;-64
2023/10/21 12:51:56;;;;;;;;;;;;;;;;;;4987212;28;90595;-64
2023/10/21 12:54:22;;;;;;;;;;;;;;;;;;4986193;28;90348;-64
2023/10/21 12:56:47;;;;;;;;;;;;;;;;;;4986426;28;89409;-64
2023/10/21 12:59:13;;;;;;;;;;;;;;;;;;4988134;28;90603;-64
2023/10/21 13:01:38;;;;;;;;;;;;;;;;;;4986485;28;90047;-64
2023/10/21 13:04:04;;;;;;;;;;;;;;;;;;4986323;28;90030;-64
2023/10/21 13:06:29;;;;;;;;;;;;;;;;;;4985685;28;90150;-64
2023/10/21 13:08:55;;;;;;;;;;;;;;;;;;4986948;28;90190;-64
2023/10/21 13:11:20;;;;;;;;;;;;;;;;;;4989077;28;89605;-64
2023/10/21 13:13:45;;;;;;;;;;;;;;;;;;4986580;28;89944;-64
2023/10/21 13:16:11;;;;;;;;;;;;;;;;;;4986003;28;89177;-64
2023/10/21 13:18:36;;;;;;;;;;;;;;;;;;4986617;28;89567;-64
2023/10/21 13:21:01;;;;;;;;;;;;;;;;;;4984959;28;90095;-64
2023/10/21 13:23:27;;;;;;;;;;;;;;;;;;4986240;28;89469;-64
2023/10/21 13:25:53;;;;;;;;;;;;;;;;;;4985912;28;89560;-65
2023/10/21 13:28:18;;;;;;;;;;;;;;;;;;4986559;28;90284;-65
2023/10/21 13:30:47;;;;;;;;;;;;;;;;;;4985908;28;90160;-64
2023/10/21 13:33:14;;;;;;;;;;;;;;;;;;4988525;28;90817;-65
2023/10/21 13:35:39;;;;;;;;;;;;;;;;;;4985588;28;89579;-64
2023/10/21 13:38:04;;;;;;;;;;;;;;;;;;4986259;28;90110;-64
2023/10/21 13:40:30;;;;;;;;;;;;;;;;;;4985642;28;89740;-64
2023/10/21 13:42:57;;;;;;;;;;;;;;;;;;4986073;28;89488;-64
2023/10/21 13:45:26;;;;;;;;;;;;;;;;;;4985601;28;90025;-64
2023/10/21 13:47:51;;;;;;;;;;;;;;;;;;4981814;28;92586;-64
2023/10/21 13:50:18;;;;;;;;;;;;;;;;;;4986416;28;89151;-64
2023/10/21 13:52:45;;;;;;;;;;;;;;;;;;4982510;28;90681;-64
2023/10/21 13:55:14;;;;;;;;;;;;;;;;;;4988359;28;89628;-64
2023/10/21 13:57:39;;;;;;;;;;;;;;;;;;4983510;28;90657;-65
2023/10/21 14:00:07;;;;;;;;;;;;;;;;;;4985038;28;89115;-65
2023/10/21 14:02:32;;;;;;;;;;;;;;;;;;4981473;28;89495;-65
2023/10/21 14:04:58;;;;;;;;;;;;;;;;;;4983105;28;89774;-64
2023/10/21 14:07:23;;;;;;;;;;;;;;;;;;4981019;28;89930;-64
2023/10/21 14:09:48;;;;;;;;;;;;;;;;;;4983292;28;90012;-64
2023/10/21 14:12:13;;;;;;;;;;;;;;;;;;4985066;28;89854;-64
2023/10/21 14:14:38;;;;;;;;;;;;;;;;;;4986701;28;89698;-64
2023/10/21 14:17:04;;;;;;;;;;;;;;;;;;4985602;28;90810;-64
2023/10/21 14:19:29;;;;;;;;;;;;;;;;;;4983466;28;90208;-65
2023/10/21 14:21:54;;;;;;;;;;;;;;;;;;4985314;28;89203;-65
2023/10/21 14:24:19;;;;;;;;;;;;;;;;;;4984439;28;89515;-65
2023/10/21 14:26:45;;;;;;;;;;;;;;;;;;4982946;28;90189;-65
2023/10/21 14:29:12;;;;;;;;;;;;;;;;;;4984446;28;89004;-65
2023/10/21 14:31:37;;;;;;;;;;;;;;;;;;4984246;28;89648;-65
2023/10/21 14:34:03;;;;;;;;;;;;;;;;;;4984735;28;89233;-65
2023/10/21 14:36:29;;;;;;;;;;;;;;;;;;4984783;28;89455;-65
2023/10/21 14:38:54;;;;;;;;;;;;;;;;;;4976595;28;92538;-65
2023/10/21 14:41:19;;;;;;;;;;;;;;;;;;4982926;28;90384;-65
2023/10/21 14:43:45;;;;;;;;;;;;;;;;;;4983231;28;90659;-65
2023/10/21 14:46:10;;;;;;;;;;;;;;;;;;4983820;28;90987;-65
2023/10/21 14:48:36;;;;;;;;;;;;;;;;;;4987060;28;89483;-65
2023/10/21 14:51:01;;;;;;;;;;;;;;;;;;4983728;28;89579;-64
2023/10/21 14:53:26;;;;;;;;;;;;;;;;;;4984978;28;89402;-65
2023/10/21 14:55:52;;;;;;;;;;;;;;;;;;4985465;28;89497;-65
2023/10/21 14:58:17;;;;;;;;;;;;;;;;;;4987363;28;90082;-65
2023/10/21 15:00:42;;;;;;;;;;;;;;;;;;4984687;28;89281;-64
2023/10/21 15:03:08;;;;;;;;;;;;;;;;;;4984158;28;89775;-65
2023/10/21 15:05:34;;;;;;;;;;;;;;;;;;4983848;28;89676;-65
2023/10/21 15:07:59;;;;;;;;;;;;;;;;;;4983795;28;89196;-65
2023/10/21 15:10:25;;;;;;;;;;;;;;;;;;4983247;28;89664;-65
2023/10/21 15:12:51;;;;;;;;;;;;;;;;;;4981580;28;89360;-65
2023/10/21 15:15:17;;;;;;;;;;;;;;;;;;4982115;28;89581;-65
2023/10/21 15:17:44;;;;;;;;;;;;;;;;;;4980069;28;90734;-64
2023/10/21 15:20:10;;;;;;;;;;;;;;;;;;4985815;28;90194;-65
2023/10/21 15:22:35;;;;;;;;;;;;;;;;;;4982205;28;91220;-65
2023/10/21 15:25:01;;;;;;;;;;;;;;;;;;4983491;28;89419;-65
2023/10/21 15:27:26;;;;;;;;;;;;;;;;;;4983650;28;89046;-65
2023/10/21 15:29:55;;;;;;;;;;;;;;;;;;4987995;28;89608;-65
2023/10/21 15:32:20;;;;;;;;;;;;;;;;;;4985570;28;90449;-65
2023/10/21 15:34:46;;;;;;;;;;;;;;;;;;4987047;28;90009;-66
2023/10/21 15:37:11;;;;;;;;;;;;;;;;;;4985451;28;90689;-65
2023/10/21 15:39:37;;;;;;;;;;;;;;;;;;4987541;28;89277;-68
2023/10/21 15:42:02;;;;;;;;;;;;;;;;;;4989707;28;89638;-66
2023/10/21 15:44:27;;;;;;;;;;;;;;;;;;4986812;28;89549;-64
2023/10/21 15:46:53;;;;;;;;;;;;;;;;;;4987104;28;89366;-64
2023/10/21 15:49:20;;;;;;;;;;;;;;;;;;4986611;28;89556;-64
2023/10/21 15:51:45;;;;;;;;;;;;;;;;;;4986718;28;89942;-64
2023/10/21 15:54:10;;;;;;;;;;;;;;;;;;4985648;28;90651;-64
2023/10/21 15:56:36;;;;;;;;;;;;;;;;;;4983654;28;90814;-63
2023/10/21 15:59:02;;;;;;;;;;;;;;;;;;4984712;28;89553;-64
2023/10/21 16:01:32;;;;;;;;;;;;;;;;;;4987878;28;89257;-63
2023/10/21 16:03:57;;;;;;;;;;;;;;;;;;4990293;28;89012;-64
2023/10/21 16:06:23;;;;;;;;;;;;;;;;;;4982682;28;89503;-64
2023/10/21 16:08:49;;;;;;;;;;;;;;;;;;4984325;28;90543;-65
2023/10/21 16:11:14;;;;;;;;;;;;;;;;;;4985882;28;89568;-65
2023/10/21 16:13:39;;;;;;;;;;;;;;;;;;4985813;28;89804;-64
2023/10/21 16:16:05;;;;;;;;;;;;;;;;;;4987175;28;89776;-64
2023/10/21 16:18:32;;;;;;;;;;;;;;;;;;4986343;28;89480;-64
2023/10/21 16:20:57;;;;;;;;;;;;;;;;;;4986505;28;89532;-65
2023/10/21 16:23:22;;;;;;;;;;;;;;;;;;4981175;28;90055;-64
2023/10/21 16:25:47;;;;;;;;;;;;;;;;;;4986175;28;89320;-65
2023/10/21 16:28:12;;;;;;;;;;;;;;;;;;4983575;28;89599;-64
2023/10/21 16:30:38;;;;;;;;;;;;;;;;;;4983307;28;89393;-64
2023/10/21 16:33:05;;;;;;;;;;;;;;;;;;4986406;28;89554;-64
2023/10/21 16:35:30;;;;;;;;;;;;;;;;;;4986241;28;89414;-65
2023/10/21 16:37:56;;;;;;;;;;;;;;;;;;4984849;28;90073;-64
2023/10/21 16:40:21;;;;;;;;;;;;;;;;;;4986032;28;89253;-64
2023/10/21 16:42:46;;;;;;;;;;;;;;;;;;4985610;28;90915;-64
2023/10/21 16:45:12;;;;;;;;;;;;;;;;;;4981626;28;89223;-64
2023/10/21 16:47:37;;;;;;;;;;;;;;;;;;4984467;28;90839;-64
2023/10/21 16:50:02;;;;;;;;;;;;;;;;;;4974623;28;89569;-64
2023/10/21 16:52:28;;;;;;;;;;;;;;;;;;4977453;28;90799;-64
2023/10/21 16:54:53;;;;;;;;;;;;;;;;;;4977180;28;89744;-65
2023/10/21 16:57:19;;;;;;;;;;;;;;;;;;4980109;28;89588;-64
2023/10/21 16:59:47;;;;;;;;;;;;;;;;;;4981149;28;89293;-64
2023/10/21 17:02:12;;;;;;;;;;;;;;;;;;4985808;28;90225;-64
2023/10/21 17:04:39;;;;;;;;;;;;;;;;;;4964635;28;91059;-64
2023/10/21 17:07:05;;;;;;;;;;;;;;;;;;4989080;28;89177;-64
2023/10/21 17:09:30;;;;;;;;;;;;;;;;;;4980292;28;89251;-64
2023/10/21 17:11:56;;;;;;;;;;;;;;;;;;4986196;28;89836;-65
2023/10/21 17:14:21;;;;;;;;;;;;;;;;;;4983677;28;91516;-64
2023/10/21 17:16:46;;;;;;;;;;;;;;;;;;4975120;28;89213;-62
2023/10/21 17:19:11;;;;;;;;;;;;;;;;;;4982663;28;90152;-64